Time;durP1;ratioP1;P1;durP2;ratioP2;P2;SDS_P1;SDS_P2;PMS_P1;PMS_P2;Temp;Humidity;BMP_temperature;BMP_pressure;BME280_temperature;BME280_humidity;BME280_pressure;Samples;Min_cycle;Max_cycle;Signal;HPM_P1;HPM_P2
2021/11/20 00:02:42;;;;;;;;;;;;;;;;;;;;;
2021/11/20 00:09:33;;;;;;;5.03;1.38;;;;;;;4.79;75.93;93527.19;4954520;29;20047;-94
2021/11/20 00:13:21;;;;;;;;;;;;;;;;;;;;;
2021/11/20 00:23:45;;;;;;;;;;;;;;;;;;;;;
2021/11/20 00:34:32;;;;;;;3.42;1.90;;;;;;;4.61;77.32;93517.69;5013609;28;20125;-96
2021/11/20 00:37:36;;;;;;;;;;;;;;;;;;;;;
2021/11/20 00:40:52;;;;;;;3.42;1.73;;;;;;;4.48;77.44;93495.38;5014592;28;20036;-95
2021/11/20 00:44:01;;;;;;;;;;;;;;;;;;;;;
2021/11/20 00:47:36;;;;;;;;;;;;;;;;;;;;;
2021/11/20 00:50:38;;;;;;;2.78;1.58;;;;;;;4.54;76.99;93496.25;5012164;28;20042;-94
2021/11/20 00:54:24;;;;;;;3.25;1.60;;;;;;;4.62;77.23;93510.72;5007141;28;20450;-95
2021/11/20 00:57:28;;;;;;;3.20;1.63;;;;;;;4.57;77.27;93501.81;4997694;28;20553;-96
2021/11/20 01:03:54;;;;;;;;;;;;;;;;;;;;;
2021/11/20 01:06:40;;;;;;;;;;;;;;;;;;;;;
2021/11/20 01:10:07;;;;;;;;;;;;;;;;;;;;;
2021/11/20 01:13:22;;;;;;;3.70;1.83;;;;;;;4.48;76.77;93487.59;5017724;28;20040;-94
2021/11/20 01:16:11;;;;;;;3.90;1.70;;;;;;;4.47;77.04;93493.00;4999505;28;20049;-94
2021/11/20 01:19:30;;;;;;;3.28;1.45;;;;;;;4.47;77.19;93498.19;5013084;28;20116;-94
2021/11/20 01:22:49;;;;;;;;;;;;;;;;;;;;;
2021/11/20 01:25:50;;;;;;;;;;;;;;;;;;;;;
2021/11/20 01:28:56;;;;;;;;;;;;;;;;;;;;;
2021/11/20 01:31:54;;;;;;;3.08;1.23;;;;;;;4.38;76.04;93482.94;5005382;28;20038;-95
2021/11/20 01:35:27;;;;;;;;;;;;;;;;;;;;;
2021/11/20 01:38:31;;;;;;;;;;;;;;;;;;;;;
2021/11/20 01:44:47;;;;;;;;;;;;;;;;;;;;;
2021/11/20 01:48:00;;;;;;;2.97;1.45;;;;;;;4.42;75.88;93477.31;4997803;28;20034;-95
2021/11/20 01:51:11;;;;;;;2.72;1.48;;;;;;;4.47;75.59;93478.22;4996368;28;20042;-94
2021/11/20 01:53:54;;;;;;;6.20;2.38;;;;;;;4.36;75.76;93466.81;4977682;28;20049;-94
2021/11/20 01:57:12;;;;;;;;;;;;;;;;;;;;;
2021/11/20 02:00:27;;;;;;;1.92;1.27;;;;;;;4.48;76.12;93479.00;4979316;28;20077;-95
2021/11/20 02:07:41;;;;;;;;;;;;;;;;;;;;;
2021/11/20 02:17:31;;;;;;;3.13;1.42;;;;;;;4.38;75.41;93451.03;4996436;28;20047;-94
2021/11/20 02:20:29;;;;;;;;;;;;;;;4.50;75.88;93461.41;4992966;28;20050;-95
2021/11/20 02:23:06;;;;;;;1.88;1.15;;;;;;;4.48;75.49;93466.03;4995916;28;19917;-94
2021/11/20 02:25:49;;;;;;;;;;;;;;;;;;;;;
2021/11/20 02:29:22;;;;;;;;;;;;;;;;;;;;;
2021/11/20 02:32:20;;;;;;;7.32;1.40;;;;;;;4.31;74.79;93438.19;4976229;28;20058;-94
2021/11/20 02:35:20;;;;;;;;;;;;;;;;;;;;;
2021/11/20 02:38:29;;;;;;;;;;;;;;;;;;;;;
2021/11/20 02:45:22;;;;;;;;;;;;;;;;;;;;;
2021/11/20 02:48:36;;;;;;;1.83;1.10;;;;;;;4.34;76.51;93435.13;4976698;28;20392;-96
2021/11/20 02:51:27;;;;;;;2.75;1.30;;;;;;;4.34;75.66;93432.53;4990896;28;20046;-95
2021/11/20 02:55:16;;;;;;;;;;;;;;;;;;;;;
2021/11/20 03:02:25;;;;;;;;;;;;;;;;;;;;;
2021/11/20 03:05:11;;;;;;;1.38;1.10;;;;;;;4.29;75.36;93411.69;4963408;28;20059;-95
2021/11/20 03:08:31;;;;;;;3.50;1.40;;;;;;;4.26;75.19;93406.97;4977756;28;20043;-94
2021/11/20 03:14:58;;;;;;;2.85;1.38;;;;;;;4.29;74.86;93409.09;4964976;28;20058;-96
2021/11/20 03:18:30;;;;;;;1.40;1.02;;;;;;;4.27;74.61;93405.16;4988098;28;20086;-95
2021/11/20 03:21:09;;;;;;;2.35;1.00;;;;;;;4.24;74.71;93390.84;4960997;28;20051;-95
2021/11/20 03:24:36;;;;;;;;;;;;;;;;;;;;;
2021/11/20 03:28:22;;;;;;;1.70;1.25;;;;;;;4.35;73.94;93399.66;4996005;28;20049;-95
2021/11/20 03:31:56;;;;;;;;;;;;;;;;;;;;;
2021/11/20 03:35:06;;;;;;;1.15;0.80;;;;;;;4.27;73.68;93385.19;4999464;28;20121;-96
2021/11/20 03:38:11;;;;;;;;;;;;;;;;;;;;;
2021/11/20 03:41:28;;;;;;;1.85;1.27;;;;;;;4.35;72.53;93381.50;4995589;28;20490;-94
2021/11/20 03:44:32;;;;;;;;;;;;;;;;;;;;;
2021/11/20 03:47:57;;;;;;;0.93;0.77;;;;;;;4.43;72.32;93385.56;4994380;28;20036;-95
2021/11/20 03:50:52;;;;;;;;;;;;;;;;;;;;;
2021/11/20 03:54:38;;;;;;;;;;;;;;;;;;;;;
2021/11/20 03:57:48;;;;;;;;;;;;;;;;;;;;;
2021/11/20 04:04:46;;;;;;;1.23;0.90;;;;;;;4.32;72.60;93368.97;5002471;28;20169;-95
2021/11/20 04:08:01;;;;;;;1.83;1.02;;;;;;;4.30;72.73;93371.00;5013883;28;20025;-95
2021/11/20 04:11:20;;;;;;;;;;;;;;;;;;;;;
2021/11/20 04:14:16;;;;;;;1.73;1.10;;;;;;;4.29;72.25;93372.81;4983681;28;20109;-95
2021/11/20 04:17:31;;;;;;;;;;;;;;;;;;;;;
2021/11/20 04:20:32;;;;;;;;;;;;;;;;;;;;;
2021/11/20 04:23:26;;;;;;;;;;;;;;;;;;;;;
2021/11/20 04:26:46;;;;;;;1.67;1.05;;;;;;;4.18;72.67;93358.03;4994733;28;20435;-95
2021/11/20 04:33:11;;;;;;;1.63;1.00;;;;;;;4.30;71.62;93368.41;5011187;28;20180;-94
2021/11/20 04:36:15;;;;;;;1.77;1.10;;;;;;;4.28;71.67;93368.66;5016497;28;20436;-95
2021/11/20 04:39:20;;;;;;;;;;;;;;;;;;;;;
2021/11/20 04:42:55;;;;;;;1.08;0.88;;;;;;;4.27;72.13;93374.84;5014640;28;20073;-96
2021/11/20 04:46:31;;;;;;;0.90;0.80;;;;;;;4.25;72.25;93368.31;5001795;28;20050;-95
2021/11/20 04:50:07;;;;;;;;;;;;;;;;;;;;;
2021/11/20 04:53:05;;;;;;;1.35;0.90;;;;;;;4.21;71.54;93365.38;4997337;28;20042;-94
2021/11/20 04:56:27;;;;;;;1.45;1.08;;;;;;;4.26;71.45;93368.09;5009388;28;20057;-95
2021/11/20 05:03:19;;;;;;;;;;;;;;;;;;;;;
2021/11/20 05:06:33;;;;;;;1.00;0.77;;;;;;;4.36;71.81;93378.66;5015110;28;20050;-94
2021/11/20 05:12:57;;;;;;;1.23;0.80;;;;;;;4.26;71.25;93368.09;4996648;28;20057;-95
2021/11/20 05:16:44;;;;;;;;;;;;;;;;;;;;;
2021/11/20 05:19:43;;;;;;;1.30;0.90;;;;;;;4.30;70.92;93361.44;4996743;28;20046;-95
2021/11/20 05:22:47;;;;;;;;;;;;;;;;;;;;;
2021/11/20 05:29:52;;;;;;;2.03;0.90;;;;;;;4.48;69.88;93364.91;4967699;28;20129;-95
2021/11/20 05:36:35;;;;;;;;;;;;;;;;;;;;;
2021/11/20 05:39:49;;;;;;;;;;;;;;;;;;;;;
2021/11/20 05:43:15;;;;;;;2.53;1.10;;;;;;;4.41;71.23;93353.88;5008079;28;20120;-95
2021/11/20 05:46:07;;;;;;;;;;;;;;;4.49;71.26;93363.91;4998425;28;20061;-96
2021/11/20 05:52:58;;;;;;;2.35;1.17;;;;;;;4.33;71.50;93342.84;4968620;28;20045;-95
2021/11/20 05:59:15;;;;;;;;;;;;;;;;;;;;;
2021/11/20 06:02:17;;;;;;;;;;;;;;;;;;;;;
2021/11/20 06:05:47;;;;;;;;;;;;;;;;;;;;;
2021/11/20 06:09:06;;;;;;;4.20;1.33;;;;;;;4.34;71.37;93349.59;4998839;28;20506;-95
2021/11/20 06:12:16;;;;;;;;;;;;;;;;;;;;;
2021/11/20 06:15:50;;;;;;;;;;;;;;;;;;;;;
2021/11/20 06:19:25;;;;;;;3.95;1.15;;;;;;;4.57;69.08;93348.00;5007189;28;20046;-96
2021/11/20 06:26:53;;;;;;;1.35;0.90;;;;;;;4.67;68.46;93348.22;5006395;28;20056;-93
2021/11/20 06:30:03;;;;;;;0.85;0.73;;;;;;;4.73;68.38;93354.31;4995874;28;20042;-93
2021/11/20 06:40:17;;;;;;;;;;;;;;;;;;;;;
2021/11/20 06:52:14;;;;;;;;;;;;;;;;;;;;;
2021/11/20 07:10:16;;;;;;;1.02;0.88;;;;;;;15.87;41.12;93344.72;4992533;28;20042;-91
2021/11/20 07:13:15;;;;;;;1.83;1.30;;;;;;;17.27;39.24;93349.81;4993344;28;20053;-91
2021/11/20 07:29:06;;;;;;;2.08;1.10;;;;;;;22.32;27.88;93355.94;4916049;29;20071;-92
2021/11/20 07:50:21;;;;;;;2.70;1.20;;;;;;;27.19;21.05;93349.13;4857569;29;20043;-92
2021/11/20 07:57:06;;;;;;;2.88;1.40;;;;;;;28.89;19.61;93356.38;4955953;29;20108;-95
2021/11/20 08:00:42;;;;;;;1.58;1.10;;;;;;;28.90;19.43;93360.63;4948840;29;20511;-96
2021/11/20 08:03:53;;;;;;;;;;;;;;;;;;;;;
2021/11/20 08:07:05;;;;;;;1.55;1.17;;;;;;;30.09;18.37;93344.16;4966921;28;20532;-95
2021/11/20 08:10:15;;;;;;;;;;;;;;;;;;;;;
2021/11/20 08:16:19;;;;;;;2.75;1.50;;;;;;;30.96;18.35;93342.00;4951111;28;20500;-95
2021/11/20 08:29:37;;;;;;;4.28;2.55;;;;;;;30.28;19.28;93329.47;4953530;29;20043;-94
2021/11/20 08:32:42;;;;;;;;;;;;;;;;;;;;;
2021/11/20 08:36:02;;;;;;;;;;;;;;;;;;;;;
2021/11/20 08:39:10;;;;;;;;;;;;;;;;;;;;;
2021/11/20 08:42:16;;;;;;;;;;;;;;;;;;;;;
2021/11/20 08:45:15;;;;;;;7.00;2.72;;;;;;;22.43;30.24;93322.34;4963624;28;20058;-94
2021/11/20 08:51:43;;;;;;;;;;;;;;;;;;;;;
2021/11/20 08:54:49;;;;;;;5.28;2.80;;;;;;;19.05;36.41;93333.31;4980468;28;20051;-95
2021/11/20 08:58:05;;;;;;;5.93;3.10;;;;;;;18.13;38.12;93329.09;4987315;28;20051;-95
2021/11/20 09:01:29;;;;;;;;;;;;;;;;;;;;;
2021/11/20 09:04:52;;;;;;;4.95;2.53;;;;;;;17.94;37.77;93324.09;4977867;28;20035;-94
2021/11/20 09:07:30;;;;;;;4.88;2.40;;;;;;;17.96;38.96;93327.22;4975400;28;20037;-93
2021/11/20 09:10:18;;;;;;;5.45;2.45;;;;;;;18.61;38.89;93319.38;4974953;28;20035;-95
2021/11/20 09:16:25;;;;;;;5.05;2.47;;;;;;;19.72;35.53;93323.78;4978838;28;20049;-94
2021/11/20 09:19:33;;;;;;;6.25;2.53;;;;;;;19.08;36.98;93316.78;4976999;28;20098;-96
2021/11/20 09:22:27;;;;;;;4.80;2.55;;;;;;;17.72;40.80;93316.25;4957518;28;20034;-94
2021/11/20 09:25:36;;;;;;;5.47;3.30;;;;;;;17.73;40.50;93308.03;4976857;28;20106;-92
2021/11/20 09:31:45;;;;;;;;;;;;;;;;;;;;;
2021/11/20 09:34:45;;;;;;;;;;;;;;;;;;;;;
2021/11/20 09:37:47;;;;;;;8.20;4.20;;;;;;;16.83;42.63;93319.75;4961102;28;20146;-95
2021/11/20 09:40:36;;;;;;;6.80;2.47;;;;;;;17.18;39.88;93304.03;4977727;28;20102;-95
2021/11/20 09:43:56;;;;;;;6.95;3.80;;;;;;;16.68;43.06;93306.13;4975573;28;20500;-95
2021/11/20 09:46:56;;;;;;;7.70;4.03;;;;;;;15.93;45.48;93309.22;4974383;28;20468;-95
2021/11/20 09:50:05;;;;;;;;;;;;;;;;;;;;;
2021/11/20 09:53:10;;;;;;;;;;;;;;;;;;;;;
2021/11/20 09:56:21;;;;;;;7.80;3.50;;;;;;;15.86;43.67;93303.59;4995445;28;20049;-95
2021/11/20 09:59:25;;;;;;;5.88;3.00;;;;;;;16.19;39.60;93293.56;4986595;28;20043;-95
2021/11/20 10:02:19;;;;;;;5.60;2.88;;;;;;;16.52;41.40;93292.50;4975105;28;20046;-96
2021/11/20 10:05:24;;;;;;;;;;;;;;;;;;;;;
2021/11/20 10:08:34;;;;;;;7.78;2.65;;;;;;;16.23;39.30;93277.88;4958560;28;20118;-93
2021/11/20 10:11:09;;;;;;;7.43;4.18;;;;;;;15.65;45.84;93292.66;4957120;28;20150;-94
2021/11/20 10:15:12;;;;;;;8.40;4.47;;;;;;;16.07;45.35;93284.63;4961774;28;20035;-94
2021/11/20 10:17:44;;;;;;;6.85;3.40;;;;;;;16.22;42.52;93285.03;4958145;28;20126;-95
2021/11/20 10:21:01;;;;;;;6.57;3.13;;;;;;;16.47;41.18;93274.94;4966093;28;20034;-95
2021/11/20 10:24:16;;;;;;;6.93;2.70;;;;;;;16.06;42.34;93283.06;4954814;28;20065;-94
2021/11/20 10:27:16;;;;;;;5.68;2.90;;;;;;;16.22;41.98;93263.91;4987882;28;20153;-96
2021/11/20 10:30:48;;;;;;;7.65;3.45;;;;;;;15.61;44.27;93268.72;4997561;28;20096;-95
2021/11/20 10:33:53;;;;;;;;;;;;;;;;;;;;;
2021/11/20 10:44:21;;;;;;;7.25;3.33;;;;;;;15.58;44.58;93266.69;5017507;23;20096;-77
2021/11/20 10:47:09;;;;;;;5.32;2.80;;;;;;;15.70;44.06;93262.75;5032636;28;20095;-77
2021/11/20 10:49:54;;;;;;;5.55;2.25;;;;;;;15.99;39.57;93249.16;5029793;28;20033;-76
2021/11/20 10:52:57;;;;;;;5.82;2.78;;;;;;;15.82;43.75;93241.91;5029454;28;20032;-77
2021/11/20 10:55:45;;;;;;;7.28;3.95;;;;;;;16.12;46.16;93243.03;5023980;28;20037;-78
2021/11/20 10:58:33;;;;;;;7.43;3.80;;;;;;;15.90;46.08;93235.91;5032588;28;20040;-78
2021/11/20 11:01:22;;;;;;;7.55;3.58;;;;;;;15.90;46.18;93240.41;5028733;28;20112;-78
2021/11/20 11:03:57;;;;;;;6.25;3.30;;;;;;;15.94;43.64;93230.78;5022626;28;20033;-78
2021/11/20 11:06:49;;;;;;;6.72;3.35;;;;;;;15.73;45.68;93226.00;5028050;28;20033;-79
2021/11/20 11:09:55;;;;;;;10.60;4.10;;;;;;;15.72;46.28;93221.03;5027771;28;20022;-79
2021/11/20 11:12:47;;;;;;;5.25;2.50;;;;;;;15.68;44.21;93214.75;5046363;28;20076;-79
2021/11/20 11:15:27;;;;;;;7.47;3.63;;;;;;;15.79;45.37;93210.81;5036732;28;20114;-78
2021/11/20 11:18:18;;;;;;;7.40;3.10;;;;;;;15.48;45.36;93208.84;5046806;28;20021;-77
2021/11/20 11:21:05;;;;;;;8.47;3.80;;;;;;;15.55;47.15;93203.94;5006418;28;20419;-78
2021/11/20 11:24:11;;;;;;;5.28;2.78;;;;;;;15.77;44.26;93208.47;5034622;28;20029;-78
2021/11/20 11:26:46;;;;;;;6.50;3.42;;;;;;;16.19;44.57;93192.44;5027535;28;20091;-77
2021/11/20 11:29:46;;;;;;;6.40;3.22;;;;;;;15.94;43.21;93189.34;5047754;28;20036;-77
2021/11/20 11:32:12;;;;;;;5.78;3.00;;;;;;;16.45;43.59;93180.09;5017542;28;20040;-77
2021/11/20 11:34:50;;;;;;;7.82;2.92;;;;;;;16.80;42.74;93187.41;5015563;28;20495;-77
2021/11/20 11:37:40;;;;;;;6.55;3.25;;;;;;;15.71;45.60;93185.16;5051476;28;20135;-79
2021/11/20 11:40:23;;;;;;;5.65;3.03;;;;;;;15.66;45.33;93166.75;5055332;28;20116;-78
2021/11/20 11:42:55;;;;;;;8.32;3.15;;;;;;;15.93;45.31;93169.28;5038514;28;20025;-77
2021/11/20 11:45:46;;;;;;;8.07;3.78;;;;;;;16.76;44.07;93158.13;5033537;28;20116;-78
2021/11/20 11:48:26;;;;;;;5.22;2.72;;;;;;;16.72;41.98;93161.69;5053640;28;20112;-78
2021/11/20 11:51:04;;;;;;;7.80;3.60;;;;;;;15.82;45.73;93160.84;5034651;28;20033;-76
2021/11/20 11:54:20;;;;;;;6.57;3.25;;;;;;;16.33;44.62;93152.72;5032859;28;20037;-76
2021/11/20 11:57:23;;;;;;;5.25;2.50;;;;;;;16.17;41.18;93153.09;4996248;28;20058;-78
2021/11/20 12:00:01;;;;;;;6.60;3.33;;;;;;;16.15;42.35;93146.56;5043476;28;20041;-77
2021/11/20 12:02:35;;;;;;;5.68;2.20;;;;;;;16.12;41.59;93141.88;5043905;28;20048;-78
2021/11/20 12:05:29;;;;;;;6.75;2.78;;;;;;;15.68;42.14;93138.22;5045053;28;20028;-77
2021/11/20 12:07:59;;;;;;;5.03;2.78;;;;;;;15.70;42.12;93136.06;5041035;28;20063;-77
2021/11/20 12:10:25;;;;;;;4.05;2.42;;;;;;;16.08;41.25;93131.16;5037268;28;20037;-77
2021/11/20 12:13:04;;;;;;;4.38;2.25;;;;;;;16.67;40.68;93119.53;5004738;28;20036;-77
2021/11/20 12:15:36;;;;;;;4.78;2.20;;;;;;;15.88;40.79;93127.19;5046974;28;20640;-76
2021/11/20 12:18:04;;;;;;;4.75;2.53;;;;;;;16.61;39.52;93116.25;5040632;28;20041;-78
2021/11/20 12:20:38;;;;;;;4.38;2.35;;;;;;;16.66;39.58;93110.81;5051253;28;20029;-77
2021/11/20 12:23:34;;;;;;;4.47;2.40;;;;;;;16.09;41.04;93108.94;5051434;28;20033;-78
2021/11/20 12:26:31;;;;;;;4.47;2.28;;;;;;;15.50;39.43;93110.94;5039936;28;20125;-78
2021/11/20 12:29:17;;;;;;;6.00;1.90;;;;;;;16.09;37.31;93105.53;5010803;28;20054;-78
2021/11/20 12:32:13;;;;;;;3.88;2.00;;;;;;;16.40;38.24;93095.69;5028886;28;20402;-77
2021/11/20 12:34:49;;;;;;;4.85;2.25;;;;;;;15.97;39.98;93096.31;5042694;28;20521;-77
2021/11/20 12:37:48;;;;;;;4.65;2.35;;;;;;;15.52;42.22;93092.94;5047795;28;20478;-80
2021/11/20 12:40:27;;;;;;;7.80;3.10;;;;;;;15.60;44.05;93092.22;5034250;28;20040;-78
2021/11/20 12:43:37;;;;;;;6.32;3.30;;;;;;;15.86;44.89;93087.09;5036424;28;20037;-78
2021/11/20 12:46:12;;;;;;;5.53;2.90;;;;;;;16.25;43.42;93080.25;5048158;28;20064;-79
2021/11/20 12:48:51;;;;;;;5.85;3.20;;;;;;;16.18;44.02;93079.91;5049633;28;20029;-77
2021/11/20 12:51:25;;;;;;;5.88;3.20;;;;;;;15.86;46.70;93081.06;5045596;28;20041;-78
2021/11/20 12:53:51;;;;;;;5.50;3.03;;;;;;;15.87;46.86;93069.41;5018749;28;20406;-77
2021/11/20 12:56:17;;;;;;;6.47;3.35;;;;;;;15.83;48.52;93066.59;5027953;28;20025;-78
2021/11/20 12:58:45;;;;;;;5.80;3.20;;;;;;;16.19;45.98;93066.41;5042775;28;20037;-78
2021/11/20 13:01:16;;;;;;;8.27;3.40;;;;;;;16.21;46.18;93063.44;5049279;28;20048;-78
2021/11/20 13:03:45;;;;;;;6.45;3.58;;;;;;;16.19;47.88;93063.00;5051930;28;20039;-77
2021/11/20 13:06:32;;;;;;;5.85;3.40;;;;;;;15.36;50.05;93058.25;5051935;28;20049;-77
2021/11/20 13:09:02;;;;;;;5.93;3.53;;;;;;;15.29;49.28;93052.59;5047667;28;20048;-77
2021/11/20 13:11:32;;;;;;;6.47;3.72;;;;;;;15.58;49.10;93055.59;5033749;28;20449;-78
2021/11/20 13:14:06;;;;;;;10.50;4.30;;;;;;;15.82;48.46;93051.84;5048334;28;20065;-78
2021/11/20 13:17:01;;;;;;;6.15;4.03;;;;;;;15.76;48.19;93051.19;5052175;28;20402;-76
2021/11/20 13:19:58;;;;;;;6.93;3.40;;;;;;;14.85;49.95;93044.41;5045632;28;20029;-78
2021/11/20 13:22:29;;;;;;;6.70;3.60;;;;;;;15.25;49.85;93038.47;5014203;28;20098;-77
2021/11/20 13:24:58;;;;;;;6.78;3.90;;;;;;;15.49;49.18;93036.28;5028333;28;20056;-77
2021/11/20 13:27:51;;;;;;;6.75;3.60;;;;;;;15.04;50.57;93036.34;5044938;28;20048;-75
2021/11/20 13:30:18;;;;;;;6.32;3.35;;;;;;;15.02;51.52;93038.50;5046943;28;20386;-78
2021/11/20 13:32:54;;;;;;;6.60;3.25;;;;;;;15.39;49.54;93031.25;5039052;28;20052;-76
2021/11/20 13:35:24;;;;;;;6.60;3.70;;;;;;;15.40;50.17;93038.88;5024537;28;20037;-77
2021/11/20 13:37:58;;;;;;;8.48;3.85;;;;;;;15.26;51.20;93032.13;5034812;28;20041;-77
2021/11/20 13:40:34;;;;;;;7.55;3.95;;;;;;;15.86;48.50;93030.91;5027971;28;20032;-77
2021/11/20 13:43:02;;;;;;;6.68;3.42;;;;;;;15.91;47.89;93028.88;5048218;28;20040;-77
2021/11/20 13:45:30;;;;;;;4.93;2.70;;;;;;;15.30;46.85;93027.81;5051201;28;20041;-77
2021/11/20 13:47:56;;;;;;;5.43;2.50;;;;;;;15.29;43.62;93026.22;5035707;28;20048;-77
2021/11/20 13:50:23;;;;;;;4.45;2.42;;;;;;;15.33;43.51;93021.91;5041169;28;20455;-77
2021/11/20 13:52:49;;;;;;;4.60;2.70;;;;;;;15.40;42.17;93024.91;5015160;28;20033;-76
2021/11/20 13:55:18;;;;;;;4.82;2.55;;;;;;;15.32;44.09;93020.38;5032457;28;20436;-76
2021/11/20 13:57:48;;;;;;;3.67;2.03;;;;;;;15.54;40.48;93017.69;5039222;28;20033;-76
2021/11/20 14:00:17;;;;;;;3.70;1.88;;;;;;;15.43;38.21;93015.63;5043541;28;20072;-76
2021/11/20 14:02:54;;;;;;;8.07;2.22;;;;;;;15.40;38.56;93009.06;5052632;28;20032;-76
2021/11/20 14:05:22;;;;;;;4.78;2.40;;;;;;;15.47;41.25;93012.06;5052276;28;20060;-76
2021/11/20 14:07:58;;;;;;;4.60;2.53;;;;;;;15.54;42.06;93015.06;5052184;28;20406;-76
2021/11/20 14:10:36;;;;;;;6.63;3.00;;;;;;;15.51;43.98;93010.38;5041787;28;20040;-76
2021/11/20 14:13:19;;;;;;;4.38;2.33;;;;;;;15.56;41.39;93007.63;5035836;28;20582;-77
2021/11/20 14:15:47;;;;;;;4.45;2.50;;;;;;;15.59;42.07;93009.63;5014485;28;20037;-76
2021/11/20 14:18:14;;;;;;;5.35;3.15;;;;;;;15.58;44.21;93010.72;5037994;28;20052;-76
2021/11/20 14:20:49;;;;;;;5.05;2.50;;;;;;;15.58;42.22;93002.00;5018085;28;20040;-77
2021/11/20 14:23:19;;;;;;;4.07;2.30;;;;;;;15.78;42.43;93000.72;5052670;28;20033;-77
2021/11/20 14:25:46;;;;;;;3.60;2.08;;;;;;;15.64;42.31;92997.41;5053050;28;20037;-76
2021/11/20 14:28:11;;;;;;;3.85;2.10;;;;;;;15.43;38.48;92995.28;5034542;28;20078;-77
2021/11/20 14:30:43;;;;;;;4.78;2.35;;;;;;;15.29;38.07;92991.94;5052232;28;20469;-77
2021/11/20 14:33:12;;;;;;;3.77;2.03;;;;;;;15.37;39.57;92985.94;5034249;28;20033;-77
2021/11/20 14:35:50;;;;;;;4.15;1.83;;;;;;;15.01;37.64;92978.16;5024841;28;20140;-77
2021/11/20 14:38:16;;;;;;;4.18;1.85;;;;;;;14.92;37.97;92981.50;5032582;28;20044;-77
2021/11/20 14:40:50;;;;;;;4.38;1.77;;;;;;;15.18;39.75;92979.03;5040529;28;20104;-76
2021/11/20 14:43:27;;;;;;;5.72;2.05;;;;;;;15.86;39.21;92976.22;5038149;28;20050;-77
2021/11/20 14:45:54;;;;;;;7.03;3.38;;;;;;;16.29;39.69;92970.25;5031980;28;20048;-76
2021/11/20 14:48:26;;;;;;;3.75;2.08;;;;;;;16.60;39.34;92972.75;5015185;28;20025;-77
2021/11/20 14:50:55;;;;;;;6.05;2.15;;;;;;;17.11;38.03;92967.75;5032071;28;20029;-77
2021/11/20 14:53:25;;;;;;;5.15;2.25;;;;;;;17.15;39.89;92966.03;5021232;28;20510;-77
2021/11/20 14:55:55;;;;;;;4.70;2.47;;;;;;;16.39;43.17;92967.31;5017042;28;20029;-77
2021/11/20 14:58:22;;;;;;;6.28;2.70;;;;;;;15.60;45.50;92963.72;5031657;28;20556;-77
2021/11/20 15:00:51;;;;;;;4.95;2.60;;;;;;;15.02;46.85;92956.75;5014095;28;20034;-76
2021/11/20 15:03:17;;;;;;;4.65;2.28;;;;;;;14.59;48.00;92967.81;5009272;28;20050;-77
2021/11/20 15:05:43;;;;;;;7.70;2.47;;;;;;;14.16;49.45;92970.81;5012299;28;20053;-77
2021/11/20 15:08:09;;;;;;;4.45;2.15;;;;;;;13.82;50.13;92961.50;5012051;28;20132;-77
2021/11/20 15:10:35;;;;;;;5.40;2.45;;;;;;;13.49;50.78;92960.84;5017637;28;20057;-77
2021/11/20 15:13:00;;;;;;;5.18;2.80;;;;;;;13.22;52.15;92958.94;5031669;28;20036;-76
2021/11/20 15:15:27;;;;;;;8.20;3.00;;;;;;;12.97;52.93;92950.44;5014560;28;20079;-77
2021/11/20 15:17:52;;;;;;;11.73;3.05;;;;;;;12.70;54.53;92951.91;4997734;28;20036;-77
2021/11/20 15:20:18;;;;;;;8.23;2.70;;;;;;;12.53;55.03;92951.66;5013989;28;20045;-77
2021/11/20 15:22:45;;;;;;;5.50;3.15;;;;;;;12.39;55.26;92945.59;5014681;28;20052;-77
2021/11/20 15:25:12;;;;;;;6.28;3.30;;;;;;;12.22;55.63;92952.09;5022192;28;20124;-77
2021/11/20 15:27:39;;;;;;;7.47;3.03;;;;;;;12.02;56.25;92942.69;5031955;28;20037;-77
2021/11/20 15:30:07;;;;;;;7.35;2.75;;;;;;;11.94;55.86;92948.56;5014177;28;20048;-76
2021/11/20 15:32:33;;;;;;;4.72;2.80;;;;;;;11.87;56.42;92948.09;5031466;28;20033;-77
2021/11/20 15:34:59;;;;;;;8.55;3.30;;;;;;;11.66;57.65;92943.13;5007615;28;20062;-76
2021/11/20 15:37:26;;;;;;;5.72;3.30;;;;;;;11.54;58.28;92944.56;5012022;28;20034;-77
2021/11/20 15:39:53;;;;;;;6.63;3.60;;;;;;;11.42;58.82;92937.88;5013542;28;20029;-77
2021/11/20 15:42:20;;;;;;;8.57;4.85;;;;;;;11.25;58.72;92937.53;5011231;28;20160;-76
2021/11/20 15:44:45;;;;;;;29.25;14.85;;;;;;;11.13;58.70;92926.69;5026975;28;20094;-76
2021/11/20 15:47:11;;;;;;;26.88;11.35;;;;;;;10.95;59.55;92918.47;5029668;28;20969;-77
2021/11/20 15:49:37;;;;;;;19.60;9.50;;;;;;;10.82;60.00;92929.59;5023709;28;20071;-77
2021/11/20 15:52:03;;;;;;;19.50;8.15;;;;;;;10.65;60.11;92924.78;5013799;28;20498;-76
2021/11/20 15:54:30;;;;;;;13.02;5.53;;;;;;;10.50;60.23;92928.28;5029885;28;20394;-77
2021/11/20 15:56:56;;;;;;;9.15;4.20;;;;;;;10.34;60.51;92929.47;5008688;28;20056;-77
2021/11/20 15:59:22;;;;;;;6.25;3.58;;;;;;;10.27;60.59;92923.72;5000551;28;20041;-77
2021/11/20 16:01:48;;;;;;;6.82;3.35;;;;;;;10.16;61.13;92929.03;5020957;28;20044;-77
2021/11/20 16:04:14;;;;;;;6.07;3.55;;;;;;;10.05;61.05;92924.91;5031175;28;20029;-77
2021/11/20 16:06:39;;;;;;;5.95;3.17;;;;;;;9.97;60.63;92921.06;5022190;28;20505;-77
2021/11/20 16:09:05;;;;;;;6.53;3.20;;;;;;;9.88;60.26;92921.88;5011587;28;20053;-77
2021/11/20 16:11:31;;;;;;;4.93;2.53;;;;;;;9.76;59.77;92920.38;5013405;28;20446;-77
2021/11/20 16:13:56;;;;;;;6.30;2.63;;;;;;;9.71;60.11;92917.78;5030437;28;20109;-76
2021/11/20 16:16:24;;;;;;;4.68;2.40;;;;;;;9.65;60.18;92912.84;5030772;28;20053;-77
2021/11/20 16:18:50;;;;;;;8.70;2.30;;;;;;;9.61;59.03;92917.84;5010339;28;20084;-77
2021/11/20 16:21:16;;;;;;;4.65;2.60;;;;;;;9.59;59.23;92909.47;5023877;28;20034;-77
2021/11/20 16:23:42;;;;;;;5.32;2.30;;;;;;;9.50;58.26;92905.88;5011651;28;20025;-77
2021/11/20 16:26:08;;;;;;;4.93;1.80;;;;;;;9.37;58.53;92912.47;5011580;28;20445;-76
2021/11/20 16:28:34;;;;;;;3.28;1.70;;;;;;;9.32;58.14;92910.66;5029830;28;20026;-76
2021/11/20 16:31:00;;;;;;;4.80;2.70;;;;;;;9.26;57.61;92916.16;5010344;28;20025;-76
2021/11/20 16:33:27;;;;;;;5.65;2.70;;;;;;;9.21;56.63;92914.34;5029870;28;20029;-76
2021/11/20 16:35:55;;;;;;;3.60;1.90;;;;;;;9.16;56.51;92911.75;5010751;28;20117;-76
2021/11/20 16:38:21;;;;;;;3.90;1.63;;;;;;;9.10;56.64;92915.44;5013686;28;20041;-77
2021/11/20 16:40:47;;;;;;;6.32;1.85;;;;;;;9.06;56.55;92923.00;5008333;28;20037;-79
2021/11/20 16:43:13;;;;;;;2.72;1.50;;;;;;;8.91;57.08;92916.00;5012135;28;20057;-79
2021/11/20 16:45:42;;;;;;;3.28;1.50;;;;;;;8.85;56.72;92914.44;5007005;28;20061;-78
2021/11/20 16:48:09;;;;;;;3.83;1.50;;;;;;;8.79;57.35;92912.88;5028656;28;20037;-79
2021/11/20 16:50:59;;;;;;;4.13;2.10;;;;;;;8.74;57.69;92910.28;5012908;28;20091;-78
2021/11/20 16:53:25;;;;;;;3.90;2.15;;;;;;;8.66;58.06;92916.81;5017496;28;20050;-79
2021/11/20 16:55:51;;;;;;;3.22;1.80;;;;;;;8.61;57.58;92916.06;5029187;28;20339;-80
2021/11/20 16:58:17;;;;;;;21.42;9.45;;;;;;;8.55;57.13;92913.44;5011349;28;20483;-80
2021/11/20 17:00:43;;;;;;;16.63;8.07;;;;;;;8.50;56.77;92905.63;5009831;28;20128;-79
2021/11/20 17:03:09;;;;;;;7.47;3.17;;;;;;;8.43;57.75;92910.31;5013926;28;20022;-79
2021/11/20 17:05:35;;;;;;;6.95;3.10;;;;;;;8.41;57.42;92906.41;5034148;28;20100;-80
2021/11/20 17:08:01;;;;;;;5.75;2.58;;;;;;;8.36;57.69;92915.00;5005249;28;20026;-79
2021/11/20 17:10:27;;;;;;;2.90;1.60;;;;;;;8.31;58.21;92912.41;5023581;28;20033;-81
2021/11/20 17:12:52;;;;;;;3.53;1.90;;;;;;;8.27;58.68;92911.34;5017395;28;20800;-81
2021/11/20 17:15:18;;;;;;;5.75;2.33;;;;;;;8.22;59.17;92911.31;5001697;28;20116;-81
2021/11/20 17:17:44;;;;;;;7.88;2.22;;;;;;;8.18;59.38;92899.88;5015078;28;20159;-80
2021/11/20 17:20:10;;;;;;;4.80;2.38;;;;;;;8.12;60.09;92904.28;5034219;28;20041;-81
2021/11/20 17:22:39;;;;;;;4.10;2.10;;;;;;;8.06;61.23;92895.69;5002153;28;20045;-81
2021/11/20 17:25:10;;;;;;;4.15;2.05;;;;;;;8.01;61.82;92898.28;4991409;28;20075;-81
2021/11/20 17:27:36;;;;;;;8.65;2.40;;;;;;;7.94;61.83;92902.97;4999322;28;20034;-81
2021/11/20 17:30:04;;;;;;;4.55;2.53;;;;;;;7.86;62.58;92898.28;5010528;28;20116;-79
2021/11/20 17:32:30;;;;;;;5.38;2.97;;;;;;;7.81;62.73;92896.44;5013696;28;20057;-82
2021/11/20 17:34:55;;;;;;;8.75;4.00;;;;;;;7.78;63.54;92896.19;5005407;28;20064;-80
2021/11/20 17:37:21;;;;;;;6.65;3.90;;;;;;;7.71;63.92;92892.00;4989447;28;20042;-82
2021/11/20 17:39:47;;;;;;;16.50;8.20;;;;;;;7.68;64.48;92894.34;4994488;28;20110;-81
2021/11/20 17:42:13;;;;;;;15.20;8.20;;;;;;;7.66;64.53;92896.41;5010191;28;20042;-84
2021/11/20 17:44:38;;;;;;;14.02;8.10;;;;;;;7.60;64.06;92897.44;5007602;28;20191;-76
2021/11/20 17:47:04;;;;;;;16.25;9.23;;;;;;;7.60;63.64;92897.44;5009977;28;20045;-79
2021/11/20 17:49:30;;;;;;;13.05;7.80;;;;;;;7.55;63.44;92900.81;5030635;28;20437;-79
2021/11/20 17:51:56;;;;;;;15.48;8.80;;;;;;;7.51;63.16;92894.56;5034480;28;20493;-78
2021/11/20 17:54:21;;;;;;;16.65;9.57;;;;;;;7.46;62.82;92894.53;5035651;28;20050;-78